sensor_id;sensor_type;location;lat;lon;timestamp;temperature;humidity
83283;DHT22;73190;50.780;5.658;2024-01-27T00:02:26;5.10;75.60
83283;DHT22;73190;50.780;5.658;2024-01-27T00:04:53;5.00;75.50
83283;DHT22;73190;50.780;5.658;2024-01-27T00:07:21;4.90;75.50
83283;DHT22;73190;50.780;5.658;2024-01-27T00:09:48;4.90;76.10
83283;DHT22;73190;50.780;5.658;2024-01-27T00:12:16;5.00;75.80
83283;DHT22;73190;50.780;5.658;2024-01-27T00:14:43;5.00;75.90
83283;DHT22;73190;50.780;5.658;2024-01-27T00:17:11;4.90;76.30
83283;DHT22;73190;50.780;5.658;2024-01-27T00:19:38;4.80;77.30
83283;DHT22;73190;50.780;5.658;2024-01-27T00:22:07;4.80;76.80
83283;DHT22;73190;50.780;5.658;2024-01-27T00:24:34;4.90;76.10
83283;DHT22;73190;50.780;5.658;2024-01-27T00:27:02;4.90;76.50
83283;DHT22;73190;50.780;5.658;2024-01-27T00:29:31;4.90;76.40
83283;DHT22;73190;50.780;5.658;2024-01-27T00:31:59;4.90;75.90
83283;DHT22;73190;50.780;5.658;2024-01-27T00:34:26;4.80;76.30
83283;DHT22;73190;50.780;5.658;2024-01-27T00:36:54;4.80;76.30
83283;DHT22;73190;50.780;5.658;2024-01-27T00:39:21;4.70;77.00
83283;DHT22;73190;50.780;5.658;2024-01-27T00:41:49;4.70;77.40
83283;DHT22;73190;50.780;5.658;2024-01-27T00:44:17;4.70;77.20
83283;DHT22;73190;50.780;5.658;2024-01-27T00:46:45;4.80;76.20
83283;DHT22;73190;50.780;5.658;2024-01-27T00:49:13;4.70;75.10
83283;DHT22;73190;50.780;5.658;2024-01-27T00:51:40;4.60;75.70
83283;DHT22;73190;50.780;5.658;2024-01-27T00:54:08;4.60;76.90
83283;DHT22;73190;50.780;5.658;2024-01-27T00:56:35;4.60;76.70
83283;DHT22;73190;50.780;5.658;2024-01-27T00:59:03;4.60;77.30
83283;DHT22;73190;50.780;5.658;2024-01-27T01:01:30;4.60;77.80
83283;DHT22;73190;50.780;5.658;2024-01-27T01:03:58;4.60;77.10
83283;DHT22;73190;50.780;5.658;2024-01-27T01:06:25;4.60;77.10
83283;DHT22;73190;50.780;5.658;2024-01-27T01:08:53;4.60;77.50
83283;DHT22;73190;50.780;5.658;2024-01-27T01:11:20;4.60;76.80
83283;DHT22;73190;50.780;5.658;2024-01-27T01:13:48;4.60;77.00
83283;DHT22;73190;50.780;5.658;2024-01-27T01:16:15;4.50;77.40
83283;DHT22;73190;50.780;5.658;2024-01-27T01:18:43;4.60;76.80
83283;DHT22;73190;50.780;5.658;2024-01-27T01:21:10;4.60;76.80
83283;DHT22;73190;50.780;5.658;2024-01-27T01:23:38;4.60;76.70
83283;DHT22;73190;50.780;5.658;2024-01-27T01:26:05;4.60;77.00
83283;DHT22;73190;50.780;5.658;2024-01-27T01:28:33;4.50;77.40
83283;DHT22;73190;50.780;5.658;2024-01-27T01:31:01;4.40;77.70
83283;DHT22;73190;50.780;5.658;2024-01-27T01:33:28;4.40;77.20
83283;DHT22;73190;50.780;5.658;2024-01-27T01:35:56;4.50;78.30
83283;DHT22;73190;50.780;5.658;2024-01-27T01:38:23;4.50;76.90
83283;DHT22;73190;50.780;5.658;2024-01-27T01:40:51;4.50;77.00
83283;DHT22;73190;50.780;5.658;2024-01-27T01:43:18;4.40;76.40
83283;DHT22;73190;50.780;5.658;2024-01-27T01:45:46;4.40;75.90
83283;DHT22;73190;50.780;5.658;2024-01-27T01:48:13;4.30;77.00
83283;DHT22;73190;50.780;5.658;2024-01-27T01:50:41;4.30;77.30
83283;DHT22;73190;50.780;5.658;2024-01-27T01:53:09;4.20;77.60
83283;DHT22;73190;50.780;5.658;2024-01-27T01:55:37;4.20;77.70
83283;DHT22;73190;50.780;5.658;2024-01-27T01:58:05;4.20;77.80
83283;DHT22;73190;50.780;5.658;2024-01-27T02:00:33;4.20;77.50
83283;DHT22;73190;50.780;5.658;2024-01-27T02:03:00;4.30;77.40
83283;DHT22;73190;50.780;5.658;2024-01-27T02:05:28;4.30;75.80
83283;DHT22;73190;50.780;5.658;2024-01-27T02:07:55;4.20;76.60
83283;DHT22;73190;50.780;5.658;2024-01-27T02:10:25;4.10;77.70
83283;DHT22;73190;50.780;5.658;2024-01-27T02:12:52;4.10;78.20
83283;DHT22;73190;50.780;5.658;2024-01-27T02:15:20;4.00;78.00
83283;DHT22;73190;50.780;5.658;2024-01-27T02:17:48;4.10;78.10
83283;DHT22;73190;50.780;5.658;2024-01-27T02:20:15;4.00;78.50
83283;DHT22;73190;50.780;5.658;2024-01-27T02:22:43;4.10;78.50
83283;DHT22;73190;50.780;5.658;2024-01-27T02:25:10;4.10;78.10
83283;DHT22;73190;50.780;5.658;2024-01-27T02:27:38;4.10;78.00
83283;DHT22;73190;50.780;5.658;2024-01-27T02:30:06;4.10;77.90
83283;DHT22;73190;50.780;5.658;2024-01-27T02:32:34;4.10;78.30
83283;DHT22;73190;50.780;5.658;2024-01-27T02:35:02;4.10;77.90
83283;DHT22;73190;50.780;5.658;2024-01-27T02:37:29;4.10;78.00
83283;DHT22;73190;50.780;5.658;2024-01-27T02:39:58;4.00;77.90
83283;DHT22;73190;50.780;5.658;2024-01-27T02:42:26;4.00;78.50
83283;DHT22;73190;50.780;5.658;2024-01-27T02:44:53;4.00;78.30
83283;DHT22;73190;50.780;5.658;2024-01-27T02:47:21;4.00;78.60
83283;DHT22;73190;50.780;5.658;2024-01-27T02:49:48;4.00;78.30
83283;DHT22;73190;50.780;5.658;2024-01-27T02:52:16;4.00;77.80
83283;DHT22;73190;50.780;5.658;2024-01-27T02:54:43;3.90;77.60
83283;DHT22;73190;50.780;5.658;2024-01-27T02:57:12;4.00;78.10
83283;DHT22;73190;50.780;5.658;2024-01-27T02:59:39;3.90;78.20
83283;DHT22;73190;50.780;5.658;2024-01-27T03:02:07;3.90;78.60
83283;DHT22;73190;50.780;5.658;2024-01-27T03:04:34;3.90;78.80
83283;DHT22;73190;50.780;5.658;2024-01-27T03:07:02;3.90;79.20
83283;DHT22;73190;50.780;5.658;2024-01-27T03:09:30;3.90;78.90
83283;DHT22;73190;50.780;5.658;2024-01-27T03:11:58;4.00;78.30
83283;DHT22;73190;50.780;5.658;2024-01-27T03:14:26;4.00;77.40
83283;DHT22;73190;50.780;5.658;2024-01-27T03:16:53;4.00;78.20
83283;DHT22;73190;50.780;5.658;2024-01-27T03:19:21;3.90;77.30
83283;DHT22;73190;50.780;5.658;2024-01-27T03:21:48;3.90;77.50
83283;DHT22;73190;50.780;5.658;2024-01-27T03:24:16;3.80;78.00
83283;DHT22;73190;50.780;5.658;2024-01-27T03:26:43;3.80;78.50
83283;DHT22;73190;50.780;5.658;2024-01-27T03:29:11;3.80;78.30
83283;DHT22;73190;50.780;5.658;2024-01-27T03:31:38;3.80;78.90
83283;DHT22;73190;50.780;5.658;2024-01-27T03:34:06;3.80;77.30
83283;DHT22;73190;50.780;5.658;2024-01-27T03:36:34;3.80;77.50
83283;DHT22;73190;50.780;5.658;2024-01-27T03:39:01;3.70;77.90
83283;DHT22;73190;50.780;5.658;2024-01-27T03:41:29;3.60;77.70
83283;DHT22;73190;50.780;5.658;2024-01-27T03:43:57;3.60;78.40
83283;DHT22;73190;50.780;5.658;2024-01-27T03:46:24;3.70;78.80
83283;DHT22;73190;50.780;5.658;2024-01-27T03:48:52;3.70;78.00
83283;DHT22;73190;50.780;5.658;2024-01-27T03:51:19;3.60;78.40
83283;DHT22;73190;50.780;5.658;2024-01-27T03:53:47;3.60;78.40
83283;DHT22;73190;50.780;5.658;2024-01-27T03:56:14;3.70;78.10
83283;DHT22;73190;50.780;5.658;2024-01-27T03:58:42;3.70;78.10
83283;DHT22;73190;50.780;5.658;2024-01-27T04:01:09;3.60;78.40
83283;DHT22;73190;50.780;5.658;2024-01-27T04:03:37;3.60;78.40
83283;DHT22;73190;50.780;5.658;2024-01-27T04:06:05;3.60;78.90
83283;DHT22;73190;50.780;5.658;2024-01-27T04:08:32;3.60;79.30
83283;DHT22;73190;50.780;5.658;2024-01-27T04:11:00;3.60;79.30
83283;DHT22;73190;50.780;5.658;2024-01-27T04:13:27;3.70;78.60
83283;DHT22;73190;50.780;5.658;2024-01-27T04:15:55;3.60;78.60
83283;DHT22;73190;50.780;5.658;2024-01-27T04:18:24;3.60;78.20
83283;DHT22;73190;50.780;5.658;2024-01-27T04:20:51;3.60;78.30
83283;DHT22;73190;50.780;5.658;2024-01-27T04:23:19;3.70;78.40
83283;DHT22;73190;50.780;5.658;2024-01-27T04:25:46;3.60;78.50
83283;DHT22;73190;50.780;5.658;2024-01-27T04:28:14;3.70;78.50
83283;DHT22;73190;50.780;5.658;2024-01-27T04:30:41;3.70;77.60
83283;DHT22;73190;50.780;5.658;2024-01-27T04:33:09;3.60;77.90
83283;DHT22;73190;50.780;5.658;2024-01-27T04:35:38;3.50;78.60
83283;DHT22;73190;50.780;5.658;2024-01-27T04:38:08;3.50;79.30
83283;DHT22;73190;50.780;5.658;2024-01-27T04:40:35;3.50;78.80
83283;DHT22;73190;50.780;5.658;2024-01-27T04:43:03;3.60;78.00
83283;DHT22;73190;50.780;5.658;2024-01-27T04:45:31;3.50;78.50
83283;DHT22;73190;50.780;5.658;2024-01-27T04:47:58;3.50;78.50
83283;DHT22;73190;50.780;5.658;2024-01-27T04:50:27;3.50;78.60
83283;DHT22;73190;50.780;5.658;2024-01-27T04:52:55;3.50;78.80
83283;DHT22;73190;50.780;5.658;2024-01-27T04:55:22;3.40;78.70
83283;DHT22;73190;50.780;5.658;2024-01-27T04:57:50;3.40;79.30
83283;DHT22;73190;50.780;5.658;2024-01-27T05:00:17;3.50;79.90
83283;DHT22;73190;50.780;5.658;2024-01-27T05:02:45;3.60;79.30
83283;DHT22;73190;50.780;5.658;2024-01-27T05:05:13;3.60;78.40
83283;DHT22;73190;50.780;5.658;2024-01-27T05:07:40;3.60;77.70
83283;DHT22;73190;50.780;5.658;2024-01-27T05:10:12;3.60;78.20
83283;DHT22;73190;50.780;5.658;2024-01-27T05:12:39;3.50;78.70
83283;DHT22;73190;50.780;5.658;2024-01-27T05:15:07;3.60;79.00
83283;DHT22;73190;50.780;5.658;2024-01-27T05:17:35;3.50;79.20
83283;DHT22;73190;50.780;5.658;2024-01-27T05:20:02;3.60;78.90
83283;DHT22;73190;50.780;5.658;2024-01-27T05:22:30;3.60;78.90
83283;DHT22;73190;50.780;5.658;2024-01-27T05:24:58;3.60;78.50
83283;DHT22;73190;50.780;5.658;2024-01-27T05:27:26;3.60;79.70
83283;DHT22;73190;50.780;5.658;2024-01-27T05:29:53;3.60;78.50
83283;DHT22;73190;50.780;5.658;2024-01-27T05:32:21;3.60;78.50
83283;DHT22;73190;50.780;5.658;2024-01-27T05:34:48;3.60;79.30
83283;DHT22;73190;50.780;5.658;2024-01-27T05:37:16;3.60;78.20
83283;DHT22;73190;50.780;5.658;2024-01-27T05:39:43;3.60;78.60
83283;DHT22;73190;50.780;5.658;2024-01-27T05:42:10;3.50;78.50
83283;DHT22;73190;50.780;5.658;2024-01-27T05:44:38;3.50;78.20
83283;DHT22;73190;50.780;5.658;2024-01-27T05:47:07;3.40;79.00
83283;DHT22;73190;50.780;5.658;2024-01-27T05:49:36;3.40;78.70
83283;DHT22;73190;50.780;5.658;2024-01-27T05:52:04;3.40;79.00
83283;DHT22;73190;50.780;5.658;2024-01-27T05:54:32;3.40;79.80
83283;DHT22;73190;50.780;5.658;2024-01-27T05:56:59;3.50;80.30
83283;DHT22;73190;50.780;5.658;2024-01-27T05:59:27;3.50;79.60
83283;DHT22;73190;50.780;5.658;2024-01-27T06:01:55;3.50;79.60
83283;DHT22;73190;50.780;5.658;2024-01-27T06:04:24;3.60;78.40
83283;DHT22;73190;50.780;5.658;2024-01-27T06:06:51;3.60;78.60
83283;DHT22;73190;50.780;5.658;2024-01-27T06:09:19;3.50;78.70
83283;DHT22;73190;50.780;5.658;2024-01-27T06:11:47;3.50;78.30
83283;DHT22;73190;50.780;5.658;2024-01-27T06:14:14;3.40;78.50
83283;DHT22;73190;50.780;5.658;2024-01-27T06:16:42;3.40;79.40
83283;DHT22;73190;50.780;5.658;2024-01-27T06:19:09;3.40;79.80
83283;DHT22;73190;50.780;5.658;2024-01-27T06:21:37;3.50;79.40
83283;DHT22;73190;50.780;5.658;2024-01-27T06:24:05;3.40;79.10
83283;DHT22;73190;50.780;5.658;2024-01-27T06:26:32;3.40;79.30
83283;DHT22;73190;50.780;5.658;2024-01-27T06:29:00;3.50;78.70
83283;DHT22;73190;50.780;5.658;2024-01-27T06:31:28;3.40;78.90
83283;DHT22;73190;50.780;5.658;2024-01-27T06:33:56;3.50;79.60
83283;DHT22;73190;50.780;5.658;2024-01-27T06:36:24;3.50;80.00
83283;DHT22;73190;50.780;5.658;2024-01-27T06:38:53;3.50;80.30
83283;DHT22;73190;50.780;5.658;2024-01-27T06:41:21;3.50;79.40
83283;DHT22;73190;50.780;5.658;2024-01-27T06:43:48;3.50;79.40
83283;DHT22;73190;50.780;5.658;2024-01-27T06:46:16;3.50;79.70
83283;DHT22;73190;50.780;5.658;2024-01-27T06:48:43;3.50;79.80
83283;DHT22;73190;50.780;5.658;2024-01-27T06:51:11;3.60;80.30
83283;DHT22;73190;50.780;5.658;2024-01-27T06:53:39;3.60;79.40
83283;DHT22;73190;50.780;5.658;2024-01-27T06:56:07;3.60;78.90
83283;DHT22;73190;50.780;5.658;2024-01-27T06:58:35;3.50;79.10
83283;DHT22;73190;50.780;5.658;2024-01-27T07:01:03;3.50;79.20
83283;DHT22;73190;50.780;5.658;2024-01-27T07:03:30;3.50;79.70
83283;DHT22;73190;50.780;5.658;2024-01-27T07:05:58;3.50;80.10
83283;DHT22;73190;50.780;5.658;2024-01-27T07:08:27;3.50;80.60
83283;DHT22;73190;50.780;5.658;2024-01-27T07:10:55;3.60;80.70
83283;DHT22;73190;50.780;5.658;2024-01-27T07:13:23;3.60;80.50
83283;DHT22;73190;50.780;5.658;2024-01-27T07:15:51;3.60;79.60
83283;DHT22;73190;50.780;5.658;2024-01-27T07:18:18;3.50;79.90
83283;DHT22;73190;50.780;5.658;2024-01-27T07:20:46;3.50;79.50
83283;DHT22;73190;50.780;5.658;2024-01-27T07:23:13;3.60;79.60
83283;DHT22;73190;50.780;5.658;2024-01-27T07:25:41;3.60;79.80
83283;DHT22;73190;50.780;5.658;2024-01-27T07:28:08;3.60;79.60
83283;DHT22;73190;50.780;5.658;2024-01-27T07:30:36;3.60;79.10
83283;DHT22;73190;50.780;5.658;2024-01-27T07:33:04;3.50;79.00
83283;DHT22;73190;50.780;5.658;2024-01-27T07:35:32;3.50;79.00
83283;DHT22;73190;50.780;5.658;2024-01-27T07:37:59;3.50;79.30
83283;DHT22;73190;50.780;5.658;2024-01-27T07:40:27;3.50;79.20
83283;DHT22;73190;50.780;5.658;2024-01-27T07:42:54;3.60;79.90
83283;DHT22;73190;50.780;5.658;2024-01-27T07:45:22;3.60;78.90
83283;DHT22;73190;50.780;5.658;2024-01-27T07:47:50;3.60;78.80
83283;DHT22;73190;50.780;5.658;2024-01-27T07:50:17;3.60;78.90
83283;DHT22;73190;50.780;5.658;2024-01-27T07:52:45;3.60;79.20
83283;DHT22;73190;50.780;5.658;2024-01-27T07:55:12;3.60;79.30
83283;DHT22;73190;50.780;5.658;2024-01-27T07:57:40;3.60;79.60
83283;DHT22;73190;50.780;5.658;2024-01-27T08:00:08;3.60;79.60
83283;DHT22;73190;50.780;5.658;2024-01-27T08:02:35;3.60;79.70
83283;DHT22;73190;50.780;5.658;2024-01-27T08:05:03;3.70;79.70
83283;DHT22;73190;50.780;5.658;2024-01-27T08:07:32;3.70;79.20
83283;DHT22;73190;50.780;5.658;2024-01-27T08:09:59;3.70;79.20
83283;DHT22;73190;50.780;5.658;2024-01-27T08:12:27;3.60;79.50
83283;DHT22;73190;50.780;5.658;2024-01-27T08:14:54;3.70;79.20
83283;DHT22;73190;50.780;5.658;2024-01-27T08:17:22;3.70;79.70
83283;DHT22;73190;50.780;5.658;2024-01-27T08:19:49;3.80;79.50
83283;DHT22;73190;50.780;5.658;2024-01-27T08:22:17;3.90;79.60
83283;DHT22;73190;50.780;5.658;2024-01-27T08:24:45;3.90;79.50
83283;DHT22;73190;50.780;5.658;2024-01-27T08:27:12;4.00;79.40
83283;DHT22;73190;50.780;5.658;2024-01-27T08:29:40;4.10;79.50
83283;DHT22;73190;50.780;5.658;2024-01-27T08:32:07;4.10;79.30
83283;DHT22;73190;50.780;5.658;2024-01-27T08:34:36;4.20;79.30
83283;DHT22;73190;50.780;5.658;2024-01-27T08:37:14;4.40;78.40
83283;DHT22;73190;50.780;5.658;2024-01-27T08:39:34;4.40;77.70
83283;DHT22;73190;50.780;5.658;2024-01-27T08:42:01;4.50;77.50
83283;DHT22;73190;50.780;5.658;2024-01-27T08:44:29;4.60;77.70
83283;DHT22;73190;50.780;5.658;2024-01-27T08:46:56;4.70;77.30
83283;DHT22;73190;50.780;5.658;2024-01-27T08:49:24;4.70;77.20
83283;DHT22;73190;50.780;5.658;2024-01-27T08:51:51;4.80;77.20
83283;DHT22;73190;50.780;5.658;2024-01-27T08:54:19;4.80;76.90
83283;DHT22;73190;50.780;5.658;2024-01-27T08:56:49;5.00;75.70
83283;DHT22;73190;50.780;5.658;2024-01-27T08:59:17;5.20;74.70
83283;DHT22;73190;50.780;5.658;2024-01-27T09:01:44;5.20;75.40
83283;DHT22;73190;50.780;5.658;2024-01-27T09:04:12;5.20;74.60
83283;DHT22;73190;50.780;5.658;2024-01-27T09:06:42;5.40;74.90
83283;DHT22;73190;50.780;5.658;2024-01-27T09:09:12;5.60;73.90
83283;DHT22;73190;50.780;5.658;2024-01-27T09:11:40;5.70;73.20
83283;DHT22;73190;50.780;5.658;2024-01-27T09:14:08;5.60;73.90
83283;DHT22;73190;50.780;5.658;2024-01-27T09:16:36;5.60;73.70
83283;DHT22;73190;50.780;5.658;2024-01-27T09:19:09;5.90;72.60
83283;DHT22;73190;50.780;5.658;2024-01-27T09:21:37;5.90;72.30
83283;DHT22;73190;50.780;5.658;2024-01-27T09:24:05;6.10;72.10
83283;DHT22;73190;50.780;5.658;2024-01-27T09:26:32;6.30;72.20
83283;DHT22;73190;50.780;5.658;2024-01-27T09:29:00;6.40;70.90
83283;DHT22;73190;50.780;5.658;2024-01-27T09:31:27;6.60;71.00
83283;DHT22;73190;50.780;5.658;2024-01-27T09:33:55;6.80;71.00
83283;DHT22;73190;50.780;5.658;2024-01-27T09:36:22;7.00;70.40
83283;DHT22;73190;50.780;5.658;2024-01-27T09:38:50;7.10;69.70
83283;DHT22;73190;50.780;5.658;2024-01-27T09:41:18;7.20;69.20
83283;DHT22;73190;50.780;5.658;2024-01-27T09:43:46;7.50;67.80
83283;DHT22;73190;50.780;5.658;2024-01-27T09:46:17;7.90;66.20
83283;DHT22;73190;50.780;5.658;2024-01-27T09:48:45;8.40;64.10
83283;DHT22;73190;50.780;5.658;2024-01-27T09:51:12;8.90;61.90
83283;DHT22;73190;50.780;5.658;2024-01-27T09:53:40;9.50;60.80
83283;DHT22;73190;50.780;5.658;2024-01-27T09:56:09;10.30;58.00
83283;DHT22;73190;50.780;5.658;2024-01-27T09:58:37;10.70;56.70
83283;DHT22;73190;50.780;5.658;2024-01-27T10:01:05;11.40;55.40
83283;DHT22;73190;50.780;5.658;2024-01-27T10:03:35;12.70;51.50
83283;DHT22;73190;50.780;5.658;2024-01-27T10:06:04;13.60;47.80
83283;DHT22;73190;50.780;5.658;2024-01-27T10:08:33;15.00;45.40
83283;DHT22;73190;50.780;5.658;2024-01-27T10:11:08;15.60;43.50
83283;DHT22;73190;50.780;5.658;2024-01-27T10:13:36;16.60;40.50
83283;DHT22;73190;50.780;5.658;2024-01-27T10:16:10;16.90;40.80
83283;DHT22;73190;50.780;5.658;2024-01-27T10:18:35;17.00;39.00
83283;DHT22;73190;50.780;5.658;2024-01-27T10:21:17;17.30;39.00
83283;DHT22;73190;50.780;5.658;2024-01-27T10:23:47;18.00;36.70
83283;DHT22;73190;50.780;5.658;2024-01-27T10:26:14;18.20;36.10
83283;DHT22;73190;50.780;5.658;2024-01-27T10:28:42;18.90;36.40
83283;DHT22;73190;50.780;5.658;2024-01-27T10:31:10;19.20;35.50
83283;DHT22;73190;50.780;5.658;2024-01-27T10:33:40;19.80;34.40
83283;DHT22;73190;50.780;5.658;2024-01-27T10:36:09;20.40;33.80
83283;DHT22;73190;50.780;5.658;2024-01-27T10:38:37;20.60;32.00
83283;DHT22;73190;50.780;5.658;2024-01-27T10:41:08;20.40;33.40
83283;DHT22;73190;50.780;5.658;2024-01-27T10:43:40;20.50;33.40
83283;DHT22;73190;50.780;5.658;2024-01-27T10:46:08;21.60;32.00
83283;DHT22;73190;50.780;5.658;2024-01-27T10:48:37;22.30;30.70
83283;DHT22;73190;50.780;5.658;2024-01-27T10:51:08;22.80;30.70
83283;DHT22;73190;50.780;5.658;2024-01-27T10:53:37;23.90;29.40
83283;DHT22;73190;50.780;5.658;2024-01-27T10:56:06;24.70;28.00
83283;DHT22;73190;50.780;5.658;2024-01-27T10:58:36;24.70;28.40
83283;DHT22;73190;50.780;5.658;2024-01-27T11:01:05;24.30;27.30
83283;DHT22;73190;50.780;5.658;2024-01-27T11:03:33;23.10;28.60
83283;DHT22;73190;50.780;5.658;2024-01-27T11:06:03;23.00;28.50
83283;DHT22;73190;50.780;5.658;2024-01-27T11:08:31;21.30;31.00
83283;DHT22;73190;50.780;5.658;2024-01-27T11:11:01;19.20;33.60
83283;DHT22;73190;50.780;5.658;2024-01-27T11:13:30;17.90;36.80
83283;DHT22;73190;50.780;5.658;2024-01-27T11:15:59;16.90;38.80
83283;DHT22;73190;50.780;5.658;2024-01-27T11:18:27;16.10;40.60
83283;DHT22;73190;50.780;5.658;2024-01-27T11:20:55;15.80;41.70
83283;DHT22;73190;50.780;5.658;2024-01-27T11:23:33;16.00;42.00
83283;DHT22;73190;50.780;5.658;2024-01-27T11:26:09;16.50;41.50
83283;DHT22;73190;50.780;5.658;2024-01-27T11:28:37;18.20;38.30
83283;DHT22;73190;50.780;5.658;2024-01-27T11:31:05;20.00;34.90
83283;DHT22;73190;50.780;5.658;2024-01-27T11:33:33;21.90;32.50
83283;DHT22;73190;50.780;5.658;2024-01-27T11:36:05;22.00;29.90
83283;DHT22;73190;50.780;5.658;2024-01-27T11:38:34;22.90;30.00
83283;DHT22;73190;50.780;5.658;2024-01-27T11:41:02;24.60;28.90
83283;DHT22;73190;50.780;5.658;2024-01-27T11:43:30;24.80;27.60
83283;DHT22;73190;50.780;5.658;2024-01-27T11:46:01;25.50;26.50
83283;DHT22;73190;50.780;5.658;2024-01-27T11:48:28;26.30;26.80
83283;DHT22;73190;50.780;5.658;2024-01-27T11:51:12;27.40;26.00
83283;DHT22;73190;50.780;5.658;2024-01-27T11:53:40;28.40;25.00
83283;DHT22;73190;50.780;5.658;2024-01-27T11:56:07;27.90;24.50
83283;DHT22;73190;50.780;5.658;2024-01-27T11:58:35;28.50;24.30
83283;DHT22;73190;50.780;5.658;2024-01-27T12:01:02;29.30;24.80
83283;DHT22;73190;50.780;5.658;2024-01-27T12:03:30;30.00;23.70
83283;DHT22;73190;50.780;5.658;2024-01-27T12:05:58;30.60;23.50
83283;DHT22;73190;50.780;5.658;2024-01-27T12:08:25;31.20;23.50
83283;DHT22;73190;50.780;5.658;2024-01-27T12:10:54;31.10;22.50
83283;DHT22;73190;50.780;5.658;2024-01-27T12:13:22;31.10;22.60
83283;DHT22;73190;50.780;5.658;2024-01-27T12:15:50;30.70;22.50
83283;DHT22;73190;50.780;5.658;2024-01-27T12:18:17;30.10;22.90
83283;DHT22;73190;50.780;5.658;2024-01-27T12:20:45;30.40;23.30
83283;DHT22;73190;50.780;5.658;2024-01-27T16:42:35;8.20;72.80
83283;DHT22;73190;50.780;5.658;2024-01-27T16:45:04;7.40;73.70
83283;DHT22;73190;50.780;5.658;2024-01-27T16:47:33;7.50;72.20
83283;DHT22;73190;50.780;5.658;2024-01-27T16:50:00;7.70;72.30
83283;DHT22;73190;50.780;5.658;2024-01-27T16:52:29;8.00;70.90
83283;DHT22;73190;50.780;5.658;2024-01-27T16:54:57;8.20;68.90
83283;DHT22;73190;50.780;5.658;2024-01-27T16:57:24;8.40;68.50
83283;DHT22;73190;50.780;5.658;2024-01-27T16:59:54;8.40;68.50
83283;DHT22;73190;50.780;5.658;2024-01-27T17:02:23;8.60;67.70
83283;DHT22;73190;50.780;5.658;2024-01-27T17:04:51;8.70;66.60
83283;DHT22;73190;50.780;5.658;2024-01-27T17:07:19;8.70;67.00
83283;DHT22;73190;50.780;5.658;2024-01-27T17:09:46;8.70;66.10
83283;DHT22;73190;50.780;5.658;2024-01-27T17:12:14;8.70;66.80
83283;DHT22;73190;50.780;5.658;2024-01-27T17:14:42;8.70;66.40
83283;DHT22;73190;50.780;5.658;2024-01-27T17:17:09;8.80;66.20
83283;DHT22;73190;50.780;5.658;2024-01-27T17:19:37;8.80;66.00
83283;DHT22;73190;50.780;5.658;2024-01-27T17:22:04;8.80;66.00
83283;DHT22;73190;50.780;5.658;2024-01-27T17:24:32;8.80;65.30
83283;DHT22;73190;50.780;5.658;2024-01-27T17:27:00;8.80;65.20
83283;DHT22;73190;50.780;5.658;2024-01-27T17:29:27;8.80;65.10
83283;DHT22;73190;50.780;5.658;2024-01-27T17:31:55;8.80;64.80
83283;DHT22;73190;50.780;5.658;2024-01-27T17:34:22;8.70;64.70
83283;DHT22;73190;50.780;5.658;2024-01-27T17:36:50;8.70;65.40
83283;DHT22;73190;50.780;5.658;2024-01-27T17:39:18;8.60;65.60
83283;DHT22;73190;50.780;5.658;2024-01-27T17:41:47;8.60;65.30
83283;DHT22;73190;50.780;5.658;2024-01-27T17:44:14;8.60;65.10
83283;DHT22;73190;50.780;5.658;2024-01-27T17:46:42;8.60;65.90
83283;DHT22;73190;50.780;5.658;2024-01-27T17:49:09;8.50;65.20
83283;DHT22;73190;50.780;5.658;2024-01-27T17:51:37;8.50;65.70
83283;DHT22;73190;50.780;5.658;2024-01-27T17:54:06;8.50;66.30
83283;DHT22;73190;50.780;5.658;2024-01-27T17:56:36;8.40;65.40
83283;DHT22;73190;50.780;5.658;2024-01-27T17:59:04;8.30;65.80
83283;DHT22;73190;50.780;5.658;2024-01-27T18:01:32;8.30;66.50
83283;DHT22;73190;50.780;5.658;2024-01-27T18:04:00;8.20;66.60
83283;DHT22;73190;50.780;5.658;2024-01-27T18:06:32;8.30;66.50
83283;DHT22;73190;50.780;5.658;2024-01-27T18:08:57;8.30;66.80
83283;DHT22;73190;50.780;5.658;2024-01-27T18:11:24;8.30;66.00
83283;DHT22;73190;50.780;5.658;2024-01-27T18:13:52;8.20;66.50
83283;DHT22;73190;50.780;5.658;2024-01-27T18:16:20;8.20;66.70
83283;DHT22;73190;50.780;5.658;2024-01-27T18:18:50;8.20;67.10
83283;DHT22;73190;50.780;5.658;2024-01-27T18:21:18;8.20;67.40
83283;DHT22;73190;50.780;5.658;2024-01-27T18:23:45;8.20;66.30
83283;DHT22;73190;50.780;5.658;2024-01-27T18:26:13;8.10;66.00
83283;DHT22;73190;50.780;5.658;2024-01-27T18:28:41;8.10;66.00
83283;DHT22;73190;50.780;5.658;2024-01-27T18:31:08;8.00;66.80
83283;DHT22;73190;50.780;5.658;2024-01-27T18:33:36;7.90;66.30
83283;DHT22;73190;50.780;5.658;2024-01-27T18:36:03;7.90;66.30
83283;DHT22;73190;50.780;5.658;2024-01-27T18:38:31;7.90;67.00
83283;DHT22;73190;50.780;5.658;2024-01-27T18:40:59;7.90;67.30
83283;DHT22;73190;50.780;5.658;2024-01-27T18:43:27;7.90;66.20
83283;DHT22;73190;50.780;5.658;2024-01-27T18:45:55;7.70;67.40
83283;DHT22;73190;50.780;5.658;2024-01-27T18:48:23;7.70;67.70
83283;DHT22;73190;50.780;5.658;2024-01-27T18:50:51;7.60;68.00
83283;DHT22;73190;50.780;5.658;2024-01-27T18:53:19;7.60;67.30
83283;DHT22;73190;50.780;5.658;2024-01-27T18:55:47;7.50;68.20
83283;DHT22;73190;50.780;5.658;2024-01-27T18:58:14;7.50;68.80
83283;DHT22;73190;50.780;5.658;2024-01-27T19:00:42;7.50;69.00
83283;DHT22;73190;50.780;5.658;2024-01-27T19:03:09;7.50;68.90
83283;DHT22;73190;50.780;5.658;2024-01-27T19:05:37;7.50;68.70
83283;DHT22;73190;50.780;5.658;2024-01-27T19:08:04;7.50;68.00
83283;DHT22;73190;50.780;5.658;2024-01-27T19:10:32;7.40;68.40
83283;DHT22;73190;50.780;5.658;2024-01-27T19:13:00;7.30;68.60
83283;DHT22;73190;50.780;5.658;2024-01-27T19:15:27;7.30;68.60
83283;DHT22;73190;50.780;5.658;2024-01-27T19:17:55;7.40;68.40
83283;DHT22;73190;50.780;5.658;2024-01-27T19:20:22;7.30;68.80
83283;DHT22;73190;50.780;5.658;2024-01-27T19:22:50;7.30;68.90
83283;DHT22;73190;50.780;5.658;2024-01-27T19:25:18;7.30;68.60
83283;DHT22;73190;50.780;5.658;2024-01-27T19:27:46;7.30;69.30
83283;DHT22;73190;50.780;5.658;2024-01-27T19:30:14;7.20;69.30
83283;DHT22;73190;50.780;5.658;2024-01-27T19:32:41;7.20;68.50
83283;DHT22;73190;50.780;5.658;2024-01-27T19:35:10;7.10;68.80
83283;DHT22;73190;50.780;5.658;2024-01-27T19:37:38;7.10;69.20
83283;DHT22;73190;50.780;5.658;2024-01-27T19:40:06;7.00;69.10
83283;DHT22;73190;50.780;5.658;2024-01-27T19:42:35;7.00;69.20
83283;DHT22;73190;50.780;5.658;2024-01-27T19:45:05;6.90;69.70
83283;DHT22;73190;50.780;5.658;2024-01-27T19:47:32;6.80;69.90
83283;DHT22;73190;50.780;5.658;2024-01-27T19:50:00;6.80;69.70
83283;DHT22;73190;50.780;5.658;2024-01-27T19:52:29;6.80;69.80
83283;DHT22;73190;50.780;5.658;2024-01-27T19:54:58;6.80;69.10
83283;DHT22;73190;50.780;5.658;2024-01-27T19:57:27;6.60;70.00
83283;DHT22;73190;50.780;5.658;2024-01-27T19:59:56;6.60;70.70
83283;DHT22;73190;50.780;5.658;2024-01-27T20:02:23;6.50;70.40
83283;DHT22;73190;50.780;5.658;2024-01-27T20:04:51;6.50;70.00
83283;DHT22;73190;50.780;5.658;2024-01-27T20:07:18;6.50;70.30
83283;DHT22;73190;50.780;5.658;2024-01-27T20:09:46;6.40;70.90